sensor_id;sensor_type;location;lat;lon;timestamp;P1;durP1;ratioP1;P2;durP2;ratioP2
65835;SDS011;52595;51.608;7.216;2023-04-25T00:01:02;10.30;;;3.25;;
65835;SDS011;52595;51.608;7.216;2023-04-25T00:03:29;10.50;;;4.18;;
65835;SDS011;52595;51.608;7.216;2023-04-25T00:05:55;11.90;;;4.07;;
65835;SDS011;52595;51.608;7.216;2023-04-25T00:08:21;13.57;;;3.97;;
65835;SDS011;52595;51.608;7.216;2023-04-25T00:10:47;16.13;;;5.00;;
65835;SDS011;52595;51.608;7.216;2023-04-25T00:13:14;14.45;;;4.40;;
65835;SDS011;52595;51.608;7.216;2023-04-25T00:15:39;9.63;;;4.43;;
65835;SDS011;52595;51.608;7.216;2023-04-25T00:18:06;16.08;;;5.30;;
65835;SDS011;52595;51.608;7.216;2023-04-25T00:20:32;13.35;;;4.95;;
65835;SDS011;52595;51.608;7.216;2023-04-25T00:22:58;11.30;;;4.60;;
65835;SDS011;52595;51.608;7.216;2023-04-25T00:25:23;10.88;;;4.75;;
65835;SDS011;52595;51.608;7.216;2023-04-25T00:27:48;9.52;;;4.15;;
65835;SDS011;52595;51.608;7.216;2023-04-25T00:30:14;13.23;;;4.50;;
65835;SDS011;52595;51.608;7.216;2023-04-25T00:32:39;9.75;;;4.35;;
65835;SDS011;52595;51.608;7.216;2023-04-25T00:35:05;8.23;;;3.75;;
65835;SDS011;52595;51.608;7.216;2023-04-25T00:37:31;8.10;;;3.92;;
65835;SDS011;52595;51.608;7.216;2023-04-25T00:39:57;10.45;;;4.20;;
65835;SDS011;52595;51.608;7.216;2023-04-25T00:42:23;9.63;;;3.60;;
65835;SDS011;52595;51.608;7.216;2023-04-25T00:44:50;8.95;;;3.85;;
65835;SDS011;52595;51.608;7.216;2023-04-25T00:47:17;8.88;;;4.00;;
65835;SDS011;52595;51.608;7.216;2023-04-25T00:49:42;12.10;;;4.15;;
65835;SDS011;52595;51.608;7.216;2023-04-25T00:52:08;14.57;;;4.90;;
65835;SDS011;52595;51.608;7.216;2023-04-25T00:54:34;14.15;;;4.50;;
65835;SDS011;52595;51.608;7.216;2023-04-25T00:56:59;14.60;;;4.53;;
65835;SDS011;52595;51.608;7.216;2023-04-25T00:59:26;7.10;;;3.72;;
65835;SDS011;52595;51.608;7.216;2023-04-25T01:01:52;8.57;;;4.00;;
65835;SDS011;52595;51.608;7.216;2023-04-25T01:04:18;10.02;;;3.97;;
65835;SDS011;52595;51.608;7.216;2023-04-25T01:06:43;8.00;;;3.85;;
65835;SDS011;52595;51.608;7.216;2023-04-25T01:09:10;9.98;;;4.07;;
65835;SDS011;52595;51.608;7.216;2023-04-25T01:11:35;12.15;;;4.47;;
65835;SDS011;52595;51.608;7.216;2023-04-25T01:14:00;10.85;;;4.57;;
65835;SDS011;52595;51.608;7.216;2023-04-25T01:16:27;10.65;;;4.20;;
65835;SDS011;52595;51.608;7.216;2023-04-25T01:18:53;10.45;;;4.07;;
65835;SDS011;52595;51.608;7.216;2023-04-25T01:21:19;10.20;;;4.50;;
65835;SDS011;52595;51.608;7.216;2023-04-25T01:23:45;8.98;;;3.92;;
65835;SDS011;52595;51.608;7.216;2023-04-25T01:26:12;10.18;;;4.57;;
65835;SDS011;52595;51.608;7.216;2023-04-25T01:28:38;14.25;;;4.40;;
65835;SDS011;52595;51.608;7.216;2023-04-25T01:31:06;12.25;;;4.30;;
65835;SDS011;52595;51.608;7.216;2023-04-25T01:33:31;8.23;;;3.65;;
65835;SDS011;52595;51.608;7.216;2023-04-25T01:35:57;9.93;;;3.95;;
65835;SDS011;52595;51.608;7.216;2023-04-25T01:38:22;10.77;;;4.15;;
65835;SDS011;52595;51.608;7.216;2023-04-25T01:40:48;9.43;;;3.60;;
65835;SDS011;52595;51.608;7.216;2023-04-25T01:43:14;11.85;;;4.60;;
65835;SDS011;52595;51.608;7.216;2023-04-25T01:45:40;14.45;;;4.68;;
65835;SDS011;52595;51.608;7.216;2023-04-25T01:48:07;9.82;;;4.50;;
65835;SDS011;52595;51.608;7.216;2023-04-25T01:50:37;10.90;;;4.00;;
65835;SDS011;52595;51.608;7.216;2023-04-25T01:53:03;10.10;;;4.35;;
65835;SDS011;52595;51.608;7.216;2023-04-25T01:55:29;12.18;;;3.80;;
65835;SDS011;52595;51.608;7.216;2023-04-25T01:57:55;13.02;;;4.20;;
65835;SDS011;52595;51.608;7.216;2023-04-25T02:00:20;11.80;;;4.63;;
65835;SDS011;52595;51.608;7.216;2023-04-25T02:02:46;11.63;;;4.70;;
65835;SDS011;52595;51.608;7.216;2023-04-25T02:05:11;10.13;;;4.20;;
65835;SDS011;52595;51.608;7.216;2023-04-25T02:07:37;13.15;;;4.68;;
65835;SDS011;52595;51.608;7.216;2023-04-25T02:10:02;12.63;;;4.95;;
65835;SDS011;52595;51.608;7.216;2023-04-25T02:12:28;16.48;;;5.10;;
65835;SDS011;52595;51.608;7.216;2023-04-25T02:14:54;11.45;;;4.97;;
65835;SDS011;52595;51.608;7.216;2023-04-25T02:17:19;11.90;;;4.53;;
65835;SDS011;52595;51.608;7.216;2023-04-25T02:19:46;13.25;;;5.30;;
65835;SDS011;52595;51.608;7.216;2023-04-25T02:22:12;11.25;;;4.85;;
65835;SDS011;52595;51.608;7.216;2023-04-25T02:24:37;10.63;;;5.00;;
65835;SDS011;52595;51.608;7.216;2023-04-25T02:27:03;12.75;;;5.20;;
65835;SDS011;52595;51.608;7.216;2023-04-25T02:29:29;12.77;;;6.38;;
65835;SDS011;52595;51.608;7.216;2023-04-25T02:31:54;11.75;;;4.93;;
65835;SDS011;52595;51.608;7.216;2023-04-25T02:34:20;12.70;;;4.88;;
65835;SDS011;52595;51.608;7.216;2023-04-25T02:36:45;13.57;;;5.97;;
65835;SDS011;52595;51.608;7.216;2023-04-25T02:39:11;14.80;;;5.97;;
65835;SDS011;52595;51.608;7.216;2023-04-25T02:41:36;11.23;;;5.63;;
65835;SDS011;52595;51.608;7.216;2023-04-25T02:44:02;13.70;;;5.70;;
65835;SDS011;52595;51.608;7.216;2023-04-25T02:46:27;11.10;;;4.88;;
65835;SDS011;52595;51.608;7.216;2023-04-25T02:48:52;12.43;;;4.68;;
65835;SDS011;52595;51.608;7.216;2023-04-25T02:51:18;12.68;;;5.63;;
65835;SDS011;52595;51.608;7.216;2023-04-25T02:53:43;20.38;;;5.70;;
65835;SDS011;52595;51.608;7.216;2023-04-25T02:56:09;13.45;;;5.45;;
65835;SDS011;52595;51.608;7.216;2023-04-25T02:58:35;13.45;;;5.50;;
65835;SDS011;52595;51.608;7.216;2023-04-25T03:01:00;13.35;;;5.15;;
65835;SDS011;52595;51.608;7.216;2023-04-25T03:03:25;12.30;;;5.18;;
65835;SDS011;52595;51.608;7.216;2023-04-25T03:05:51;14.63;;;5.25;;
65835;SDS011;52595;51.608;7.216;2023-04-25T03:08:17;16.23;;;5.53;;
65835;SDS011;52595;51.608;7.216;2023-04-25T03:10:43;11.90;;;4.95;;
65835;SDS011;52595;51.608;7.216;2023-04-25T03:13:08;15.30;;;5.47;;
65835;SDS011;52595;51.608;7.216;2023-04-25T03:15:34;9.90;;;4.13;;
65835;SDS011;52595;51.608;7.216;2023-04-25T03:18:00;11.88;;;4.88;;
65835;SDS011;52595;51.608;7.216;2023-04-25T03:20:26;12.60;;;4.55;;
65835;SDS011;52595;51.608;7.216;2023-04-25T03:22:51;12.23;;;5.22;;
65835;SDS011;52595;51.608;7.216;2023-04-25T03:25:16;13.10;;;5.00;;
65835;SDS011;52595;51.608;7.216;2023-04-25T03:27:42;13.27;;;4.60;;
65835;SDS011;52595;51.608;7.216;2023-04-25T03:30:07;16.30;;;5.28;;
65835;SDS011;52595;51.608;7.216;2023-04-25T03:32:33;11.13;;;4.70;;
65835;SDS011;52595;51.608;7.216;2023-04-25T03:34:59;14.20;;;5.28;;
65835;SDS011;52595;51.608;7.216;2023-04-25T03:37:25;18.02;;;5.38;;
65835;SDS011;52595;51.608;7.216;2023-04-25T03:39:50;11.05;;;4.53;;
65835;SDS011;52595;51.608;7.216;2023-04-25T03:42:16;6.60;;;3.47;;
65835;SDS011;52595;51.608;7.216;2023-04-25T03:44:42;11.02;;;4.55;;
65835;SDS011;52595;51.608;7.216;2023-04-25T03:47:08;9.05;;;3.38;;
65835;SDS011;52595;51.608;7.216;2023-04-25T03:49:33;12.00;;;3.47;;
65835;SDS011;52595;51.608;7.216;2023-04-25T03:51:59;10.35;;;3.05;;
65835;SDS011;52595;51.608;7.216;2023-04-25T03:54:25;13.90;;;3.40;;
65835;SDS011;52595;51.608;7.216;2023-04-25T03:56:50;8.85;;;3.38;;
65835;SDS011;52595;51.608;7.216;2023-04-25T03:59:16;9.48;;;3.53;;
65835;SDS011;52595;51.608;7.216;2023-04-25T04:01:41;10.35;;;3.45;;
65835;SDS011;52595;51.608;7.216;2023-04-25T04:04:07;10.98;;;3.75;;
65835;SDS011;52595;51.608;7.216;2023-04-25T04:06:32;13.82;;;3.90;;
65835;SDS011;52595;51.608;7.216;2023-04-25T04:08:58;11.02;;;4.15;;
65835;SDS011;52595;51.608;7.216;2023-04-25T04:11:23;11.27;;;3.85;;
65835;SDS011;52595;51.608;7.216;2023-04-25T04:13:49;12.02;;;4.35;;
65835;SDS011;52595;51.608;7.216;2023-04-25T04:16:14;11.23;;;4.10;;
65835;SDS011;52595;51.608;7.216;2023-04-25T04:18:40;11.90;;;4.07;;
65835;SDS011;52595;51.608;7.216;2023-04-25T04:21:05;10.45;;;4.35;;
65835;SDS011;52595;51.608;7.216;2023-04-25T04:23:31;12.07;;;4.18;;
65835;SDS011;52595;51.608;7.216;2023-04-25T04:25:56;10.48;;;3.70;;
65835;SDS011;52595;51.608;7.216;2023-04-25T04:28:22;14.90;;;3.83;;
65835;SDS011;52595;51.608;7.216;2023-04-25T04:30:47;13.48;;;4.00;;
65835;SDS011;52595;51.608;7.216;2023-04-25T04:33:16;14.15;;;4.43;;
65835;SDS011;52595;51.608;7.216;2023-04-25T04:35:41;14.65;;;4.07;;
65835;SDS011;52595;51.608;7.216;2023-04-25T04:38:07;16.02;;;4.45;;
65835;SDS011;52595;51.608;7.216;2023-04-25T04:40:32;12.38;;;4.22;;
65835;SDS011;52595;51.608;7.216;2023-04-25T04:42:58;13.93;;;4.32;;
65835;SDS011;52595;51.608;7.216;2023-04-25T04:45:23;8.90;;;5.00;;
65835;SDS011;52595;51.608;7.216;2023-04-25T04:47:49;14.60;;;4.65;;
65835;SDS011;52595;51.608;7.216;2023-04-25T04:50:15;14.68;;;3.92;;
65835;SDS011;52595;51.608;7.216;2023-04-25T04:52:41;12.90;;;3.90;;
65835;SDS011;52595;51.608;7.216;2023-04-25T04:55:06;14.57;;;4.32;;
65835;SDS011;52595;51.608;7.216;2023-04-25T04:57:33;15.90;;;4.28;;
65835;SDS011;52595;51.608;7.216;2023-04-25T04:59:59;19.92;;;3.97;;
65835;SDS011;52595;51.608;7.216;2023-04-25T05:02:25;15.07;;;4.93;;
65835;SDS011;52595;51.608;7.216;2023-04-25T05:04:51;11.15;;;4.43;;
65835;SDS011;52595;51.608;7.216;2023-04-25T05:07:17;13.88;;;4.43;;
65835;SDS011;52595;51.608;7.216;2023-04-25T05:09:43;14.38;;;4.63;;
65835;SDS011;52595;51.608;7.216;2023-04-25T05:12:09;14.15;;;4.40;;
65835;SDS011;52595;51.608;7.216;2023-04-25T05:14:34;18.35;;;5.25;;
65835;SDS011;52595;51.608;7.216;2023-04-25T05:17:00;14.98;;;4.63;;
65835;SDS011;52595;51.608;7.216;2023-04-25T05:19:25;13.73;;;5.18;;
65835;SDS011;52595;51.608;7.216;2023-04-25T05:21:51;11.90;;;4.90;;
65835;SDS011;52595;51.608;7.216;2023-04-25T05:24:17;17.52;;;5.35;;
65835;SDS011;52595;51.608;7.216;2023-04-25T05:26:42;15.98;;;4.95;;
65835;SDS011;52595;51.608;7.216;2023-04-25T05:29:08;16.10;;;5.70;;
65835;SDS011;52595;51.608;7.216;2023-04-25T05:31:34;14.02;;;5.18;;
65835;SDS011;52595;51.608;7.216;2023-04-25T05:34:01;18.25;;;5.85;;
65835;SDS011;52595;51.608;7.216;2023-04-25T05:36:26;18.85;;;5.45;;
65835;SDS011;52595;51.608;7.216;2023-04-25T05:38:52;22.80;;;5.78;;
65835;SDS011;52595;51.608;7.216;2023-04-25T05:41:17;16.70;;;6.13;;
65835;SDS011;52595;51.608;7.216;2023-04-25T05:43:43;17.05;;;5.65;;
65835;SDS011;52595;51.608;7.216;2023-04-25T05:46:12;23.35;;;6.38;;
65835;SDS011;52595;51.608;7.216;2023-04-25T05:48:37;17.52;;;5.90;;
65835;SDS011;52595;51.608;7.216;2023-04-25T05:51:03;18.45;;;6.15;;
65835;SDS011;52595;51.608;7.216;2023-04-25T05:53:28;16.67;;;5.72;;
65835;SDS011;52595;51.608;7.216;2023-04-25T05:55:54;19.20;;;6.50;;
65835;SDS011;52595;51.608;7.216;2023-04-25T05:58:19;15.20;;;5.55;;
65835;SDS011;52595;51.608;7.216;2023-04-25T06:00:45;18.83;;;6.28;;
65835;SDS011;52595;51.608;7.216;2023-04-25T06:03:11;16.33;;;5.82;;
65835;SDS011;52595;51.608;7.216;2023-04-25T06:05:38;22.58;;;6.70;;
65835;SDS011;52595;51.608;7.216;2023-04-25T06:08:03;18.55;;;6.57;;
65835;SDS011;52595;51.608;7.216;2023-04-25T06:10:29;18.40;;;5.78;;
65835;SDS011;52595;51.608;7.216;2023-04-25T06:12:55;23.73;;;6.80;;
65835;SDS011;52595;51.608;7.216;2023-04-25T06:15:20;17.83;;;5.85;;
65835;SDS011;52595;51.608;7.216;2023-04-25T06:17:45;19.33;;;6.68;;
65835;SDS011;52595;51.608;7.216;2023-04-25T06:20:11;21.00;;;6.45;;
65835;SDS011;52595;51.608;7.216;2023-04-25T06:22:36;17.65;;;6.70;;
65835;SDS011;52595;51.608;7.216;2023-04-25T06:25:02;16.05;;;6.03;;
65835;SDS011;52595;51.608;7.216;2023-04-25T06:27:29;21.38;;;6.45;;
65835;SDS011;52595;51.608;7.216;2023-04-25T06:29:54;20.25;;;6.05;;
65835;SDS011;52595;51.608;7.216;2023-04-25T06:32:20;18.67;;;5.68;;
65835;SDS011;52595;51.608;7.216;2023-04-25T06:34:45;19.48;;;5.78;;
65835;SDS011;52595;51.608;7.216;2023-04-25T06:37:10;16.98;;;5.18;;
65835;SDS011;52595;51.608;7.216;2023-04-25T06:39:36;13.82;;;4.97;;
65835;SDS011;52595;51.608;7.216;2023-04-25T06:42:02;15.52;;;4.90;;
65835;SDS011;52595;51.608;7.216;2023-04-25T06:44:27;15.40;;;4.82;;
65835;SDS011;52595;51.608;7.216;2023-04-25T06:46:54;15.40;;;4.35;;
65835;SDS011;52595;51.608;7.216;2023-04-25T06:49:19;11.93;;;4.22;;
65835;SDS011;52595;51.608;7.216;2023-04-25T06:51:45;12.23;;;4.13;;
65835;SDS011;52595;51.608;7.216;2023-04-25T06:54:10;12.70;;;4.25;;
65835;SDS011;52595;51.608;7.216;2023-04-25T06:56:36;15.90;;;4.30;;
65835;SDS011;52595;51.608;7.216;2023-04-25T06:59:01;13.45;;;4.15;;
65835;SDS011;52595;51.608;7.216;2023-04-25T07:01:26;13.27;;;4.22;;
65835;SDS011;52595;51.608;7.216;2023-04-25T07:03:52;14.63;;;4.00;;
65835;SDS011;52595;51.608;7.216;2023-04-25T07:06:17;13.07;;;4.85;;
65835;SDS011;52595;51.608;7.216;2023-04-25T07:08:43;14.50;;;4.22;;
65835;SDS011;52595;51.608;7.216;2023-04-25T07:11:08;20.25;;;3.92;;
65835;SDS011;52595;51.608;7.216;2023-04-25T07:13:34;15.25;;;4.15;;
65835;SDS011;52595;51.608;7.216;2023-04-25T07:15:59;12.00;;;3.83;;
65835;SDS011;52595;51.608;7.216;2023-04-25T07:18:25;12.98;;;3.47;;
65835;SDS011;52595;51.608;7.216;2023-04-25T07:20:50;12.95;;;3.55;;
65835;SDS011;52595;51.608;7.216;2023-04-25T07:23:16;12.43;;;3.65;;
65835;SDS011;52595;51.608;7.216;2023-04-25T07:25:41;12.95;;;3.90;;
65835;SDS011;52595;51.608;7.216;2023-04-25T07:28:06;13.43;;;3.85;;
65835;SDS011;52595;51.608;7.216;2023-04-25T07:30:32;17.38;;;3.97;;
65835;SDS011;52595;51.608;7.216;2023-04-25T07:32:58;14.20;;;4.75;;
65835;SDS011;52595;51.608;7.216;2023-04-25T07:35:24;13.38;;;3.97;;
65835;SDS011;52595;51.608;7.216;2023-04-25T07:37:49;19.38;;;4.43;;
65835;SDS011;52595;51.608;7.216;2023-04-25T07:40:15;13.98;;;3.72;;
65835;SDS011;52595;51.608;7.216;2023-04-25T07:42:41;10.75;;;3.65;;
65835;SDS011;52595;51.608;7.216;2023-04-25T07:45:07;21.65;;;4.13;;
65835;SDS011;52595;51.608;7.216;2023-04-25T07:47:32;17.55;;;4.00;;
65835;SDS011;52595;51.608;7.216;2023-04-25T07:49:58;12.77;;;3.95;;
65835;SDS011;52595;51.608;7.216;2023-04-25T07:52:23;11.35;;;3.92;;
65835;SDS011;52595;51.608;7.216;2023-04-25T07:54:49;8.98;;;3.72;;
65835;SDS011;52595;51.608;7.216;2023-04-25T07:57:14;9.75;;;3.22;;
65835;SDS011;52595;51.608;7.216;2023-04-25T07:59:41;11.20;;;3.10;;
65835;SDS011;52595;51.608;7.216;2023-04-25T08:02:07;7.95;;;3.15;;
65835;SDS011;52595;51.608;7.216;2023-04-25T08:04:32;12.18;;;3.60;;
65835;SDS011;52595;51.608;7.216;2023-04-25T08:06:58;12.48;;;3.33;;
65835;SDS011;52595;51.608;7.216;2023-04-25T08:09:23;9.07;;;2.80;;
65835;SDS011;52595;51.608;7.216;2023-04-25T08:11:49;10.38;;;3.13;;
65835;SDS011;52595;51.608;7.216;2023-04-25T08:14:15;8.02;;;2.63;;
65835;SDS011;52595;51.608;7.216;2023-04-25T08:16:40;8.68;;;3.30;;
65835;SDS011;52595;51.608;7.216;2023-04-25T08:19:05;13.35;;;3.50;;
65835;SDS011;52595;51.608;7.216;2023-04-25T08:21:31;12.75;;;3.20;;
65835;SDS011;52595;51.608;7.216;2023-04-25T08:23:57;7.55;;;3.08;;
65835;SDS011;52595;51.608;7.216;2023-04-25T08:26:23;8.23;;;3.47;;
65835;SDS011;52595;51.608;7.216;2023-04-25T08:28:49;9.75;;;3.50;;
65835;SDS011;52595;51.608;7.216;2023-04-25T08:31:15;11.48;;;3.70;;
65835;SDS011;52595;51.608;7.216;2023-04-25T08:33:40;12.23;;;3.38;;
65835;SDS011;52595;51.608;7.216;2023-04-25T08:36:05;11.20;;;3.17;;
65835;SDS011;52595;51.608;7.216;2023-04-25T08:38:31;10.43;;;3.40;;
65835;SDS011;52595;51.608;7.216;2023-04-25T08:40:56;12.98;;;3.03;;
65835;SDS011;52595;51.608;7.216;2023-04-25T08:43:25;13.02;;;3.15;;
65835;SDS011;52595;51.608;7.216;2023-04-25T08:45:53;11.05;;;2.63;;
65835;SDS011;52595;51.608;7.216;2023-04-25T08:48:22;8.02;;;2.60;;
65835;SDS011;52595;51.608;7.216;2023-04-25T08:50:52;8.63;;;2.40;;
65835;SDS011;52595;51.608;7.216;2023-04-25T08:53:25;11.43;;;2.28;;
65835;SDS011;52595;51.608;7.216;2023-04-25T08:55:51;10.07;;;2.70;;
65835;SDS011;52595;51.608;7.216;2023-04-25T08:58:22;8.65;;;2.50;;
65835;SDS011;52595;51.608;7.216;2023-04-25T09:00:48;10.23;;;2.90;;
65835;SDS011;52595;51.608;7.216;2023-04-25T09:03:15;7.80;;;2.40;;
65835;SDS011;52595;51.608;7.216;2023-04-25T09:05:41;8.50;;;2.35;;
65835;SDS011;52595;51.608;7.216;2023-04-25T09:08:06;10.02;;;2.28;;
65835;SDS011;52595;51.608;7.216;2023-04-25T09:10:32;8.07;;;2.40;;
65835;SDS011;52595;51.608;7.216;2023-04-25T09:13:01;10.75;;;2.28;;
65835;SDS011;52595;51.608;7.216;2023-04-25T09:15:46;7.95;;;2.60;;
65835;SDS011;52595;51.608;7.216;2023-04-25T09:18:23;9.00;;;2.78;;
65835;SDS011;52595;51.608;7.216;2023-04-25T09:20:53;10.30;;;2.38;;
65835;SDS011;52595;51.608;7.216;2023-04-25T09:26:07;8.20;;;2.30;;
65835;SDS011;52595;51.608;7.216;2023-04-25T09:28:33;7.97;;;2.10;;
65835;SDS011;52595;51.608;7.216;2023-04-25T09:31:00;4.28;;;1.85;;
65835;SDS011;52595;51.608;7.216;2023-04-25T09:33:29;5.90;;;2.40;;
65835;SDS011;52595;51.608;7.216;2023-04-25T09:38:39;10.00;;;1.98;;
65835;SDS011;52595;51.608;7.216;2023-04-25T09:41:07;5.03;;;1.92;;
65835;SDS011;52595;51.608;7.216;2023-04-25T09:43:33;5.43;;;1.77;;
65835;SDS011;52595;51.608;7.216;2023-04-25T09:45:58;7.57;;;2.13;;
65835;SDS011;52595;51.608;7.216;2023-04-25T09:48:26;5.38;;;1.75;;
65835;SDS011;52595;51.608;7.216;2023-04-25T09:51:09;4.72;;;1.77;;
65835;SDS011;52595;51.608;7.216;2023-04-25T09:53:39;5.72;;;1.90;;
65835;SDS011;52595;51.608;7.216;2023-04-25T09:56:06;8.57;;;1.90;;
65835;SDS011;52595;51.608;7.216;2023-04-25T09:58:33;8.07;;;1.65;;
65835;SDS011;52595;51.608;7.216;2023-04-25T10:01:01;6.25;;;1.80;;
65835;SDS011;52595;51.608;7.216;2023-04-25T10:03:29;3.50;;;1.65;;
65835;SDS011;52595;51.608;7.216;2023-04-25T10:05:59;4.22;;;1.55;;
65835;SDS011;52595;51.608;7.216;2023-04-25T10:08:34;4.95;;;1.40;;
65835;SDS011;52595;51.608;7.216;2023-04-25T10:11:02;6.35;;;1.80;;
65835;SDS011;52595;51.608;7.216;2023-04-25T10:13:30;5.90;;;1.85;;
65835;SDS011;52595;51.608;7.216;2023-04-25T10:16:00;4.55;;;1.45;;
65835;SDS011;52595;51.608;7.216;2023-04-25T10:18:30;4.85;;;1.60;;
65835;SDS011;52595;51.608;7.216;2023-04-25T10:21:00;4.07;;;1.50;;
65835;SDS011;52595;51.608;7.216;2023-04-25T10:23:28;5.22;;;1.60;;
65835;SDS011;52595;51.608;7.216;2023-04-25T10:25:55;6.13;;;1.67;;
65835;SDS011;52595;51.608;7.216;2023-04-25T10:28:21;5.82;;;2.00;;
65835;SDS011;52595;51.608;7.216;2023-04-25T10:30:56;5.28;;;1.63;;
65835;SDS011;52595;51.608;7.216;2023-04-25T10:33:37;4.65;;;1.50;;
65835;SDS011;52595;51.608;7.216;2023-04-25T10:36:13;8.63;;;1.60;;
65835;SDS011;52595;51.608;7.216;2023-04-25T10:38:43;5.63;;;2.20;;
65835;SDS011;52595;51.608;7.216;2023-04-25T10:41:10;6.75;;;1.70;;
65835;SDS011;52595;51.608;7.216;2023-04-25T10:43:37;8.02;;;1.70;;
65835;SDS011;52595;51.608;7.216;2023-04-25T10:46:13;6.15;;;1.90;;
65835;SDS011;52595;51.608;7.216;2023-04-25T10:48:50;5.93;;;2.05;;
65835;SDS011;52595;51.608;7.216;2023-04-25T10:54:07;5.05;;;1.85;;
65835;SDS011;52595;51.608;7.216;2023-04-25T10:56:38;7.63;;;1.75;;
65835;SDS011;52595;51.608;7.216;2023-04-25T11:01:44;6.00;;;1.90;;
65835;SDS011;52595;51.608;7.216;2023-04-25T11:04:30;6.97;;;1.80;;
65835;SDS011;52595;51.608;7.216;2023-04-25T11:09:35;5.72;;;1.70;;
65835;SDS011;52595;51.608;7.216;2023-04-25T11:12:01;4.43;;;1.60;;
65835;SDS011;52595;51.608;7.216;2023-04-25T11:14:27;5.20;;;1.55;;
65835;SDS011;52595;51.608;7.216;2023-04-25T11:16:56;4.53;;;1.70;;
65835;SDS011;52595;51.608;7.216;2023-04-25T11:19:22;6.43;;;1.90;;
65835;SDS011;52595;51.608;7.216;2023-04-25T11:21:49;5.10;;;1.55;;
65835;SDS011;52595;51.608;7.216;2023-04-25T11:24:15;7.75;;;1.75;;
65835;SDS011;52595;51.608;7.216;2023-04-25T11:26:42;5.20;;;1.40;;
65835;SDS011;52595;51.608;7.216;2023-04-25T11:29:08;4.38;;;1.30;;
65835;SDS011;52595;51.608;7.216;2023-04-25T11:31:33;6.35;;;1.90;;
65835;SDS011;52595;51.608;7.216;2023-04-25T11:33:59;2.70;;;1.33;;
65835;SDS011;52595;51.608;7.216;2023-04-25T11:36:25;2.53;;;1.25;;
65835;SDS011;52595;51.608;7.216;2023-04-25T11:38:52;4.18;;;1.40;;
65835;SDS011;52595;51.608;7.216;2023-04-25T11:41:18;2.40;;;1.10;;
65835;SDS011;52595;51.608;7.216;2023-04-25T11:43:44;2.20;;;1.15;;
65835;SDS011;52595;51.608;7.216;2023-04-25T11:46:10;2.05;;;1.20;;
65835;SDS011;52595;51.608;7.216;2023-04-25T11:48:36;3.80;;;1.20;;
65835;SDS011;52595;51.608;7.216;2023-04-25T11:51:03;4.35;;;1.30;;
65835;SDS011;52595;51.608;7.216;2023-04-25T11:53:29;2.40;;;1.30;;
65835;SDS011;52595;51.608;7.216;2023-04-25T11:55:54;2.88;;;1.23;;
65835;SDS011;52595;51.608;7.216;2023-04-25T11:58:21;3.83;;;1.30;;
65835;SDS011;52595;51.608;7.216;2023-04-25T12:00:46;4.93;;;1.35;;
65835;SDS011;52595;51.608;7.216;2023-04-25T12:03:12;4.60;;;1.27;;
65835;SDS011;52595;51.608;7.216;2023-04-25T12:05:37;4.00;;;1.67;;
65835;SDS011;52595;51.608;7.216;2023-04-25T12:08:09;4.60;;;1.50;;
65835;SDS011;52595;51.608;7.216;2023-04-25T12:10:37;3.72;;;1.55;;
65835;SDS011;52595;51.608;7.216;2023-04-25T12:13:17;3.25;;;1.50;;
65835;SDS011;52595;51.608;7.216;2023-04-25T12:15:44;3.15;;;1.25;;
65835;SDS011;52595;51.608;7.216;2023-04-25T12:18:09;4.55;;;1.35;;
65835;SDS011;52595;51.608;7.216;2023-04-25T12:20:35;3.30;;;1.15;;
65835;SDS011;52595;51.608;7.216;2023-04-25T12:23:01;2.03;;;1.15;;
65835;SDS011;52595;51.608;7.216;2023-04-25T12:25:34;3.20;;;1.17;;
65835;SDS011;52595;51.608;7.216;2023-04-25T12:28:14;5.75;;;1.30;;
65835;SDS011;52595;51.608;7.216;2023-04-25T12:30:52;8.65;;;1.98;;
65835;SDS011;52595;51.608;7.216;2023-04-25T12:33:17;6.63;;;1.13;;
65835;SDS011;52595;51.608;7.216;2023-04-25T12:35:42;7.53;;;1.33;;
65835;SDS011;52595;51.608;7.216;2023-04-25T12:38:08;3.60;;;1.20;;
65835;SDS011;52595;51.608;7.216;2023-04-25T12:40:33;3.47;;;0.98;;
65835;SDS011;52595;51.608;7.216;2023-04-25T12:42:59;4.13;;;1.13;;
65835;SDS011;52595;51.608;7.216;2023-04-25T12:45:24;1.75;;;1.10;;
65835;SDS011;52595;51.608;7.216;2023-04-25T12:47:49;3.65;;;1.10;;
65835;SDS011;52595;51.608;7.216;2023-04-25T12:50:15;4.22;;;1.25;;
65835;SDS011;52595;51.608;7.216;2023-04-25T12:52:40;2.53;;;1.20;;
65835;SDS011;52595;51.608;7.216;2023-04-25T12:55:06;3.00;;;1.27;;
65835;SDS011;52595;51.608;7.216;2023-04-25T12:57:31;3.05;;;1.20;;
65835;SDS011;52595;51.608;7.216;2023-04-25T12:59:57;4.15;;;1.60;;
65835;SDS011;52595;51.608;7.216;2023-04-25T13:02:22;2.80;;;1.13;;
65835;SDS011;52595;51.608;7.216;2023-04-25T13:04:48;1.95;;;1.30;;
65835;SDS011;52595;51.608;7.216;2023-04-25T13:07:13;6.75;;;1.60;;
65835;SDS011;52595;51.608;7.216;2023-04-25T13:09:38;4.80;;;1.58;;
65835;SDS011;52595;51.608;7.216;2023-04-25T13:12:04;5.10;;;1.70;;
65835;SDS011;52595;51.608;7.216;2023-04-25T13:14:30;3.78;;;1.50;;
65835;SDS011;52595;51.608;7.216;2023-04-25T13:16:55;3.22;;;1.30;;
65835;SDS011;52595;51.608;7.216;2023-04-25T13:19:21;4.35;;;1.27;;
65835;SDS011;52595;51.608;7.216;2023-04-25T13:21:46;1.67;;;1.10;;
65835;SDS011;52595;51.608;7.216;2023-04-25T13:24:12;3.03;;;1.45;;
65835;SDS011;52595;51.608;7.216;2023-04-25T13:26:37;4.97;;;1.65;;
65835;SDS011;52595;51.608;7.216;2023-04-25T13:29:02;6.00;;;1.70;;
65835;SDS011;52595;51.608;7.216;2023-04-25T13:31:28;3.60;;;1.50;;
65835;SDS011;52595;51.608;7.216;2023-04-25T13:33:54;6.93;;;1.77;;
65835;SDS011;52595;51.608;7.216;2023-04-25T13:36:20;3.45;;;1.60;;
65835;SDS011;52595;51.608;7.216;2023-04-25T13:38:45;8.05;;;1.92;;
65835;SDS011;52595;51.608;7.216;2023-04-25T13:41:12;4.38;;;1.60;;
65835;SDS011;52595;51.608;7.216;2023-04-25T13:43:42;3.33;;;1.33;;
65835;SDS011;52595;51.608;7.216;2023-04-25T13:46:08;4.35;;;1.55;;
65835;SDS011;52595;51.608;7.216;2023-04-25T13:48:33;2.83;;;1.27;;
65835;SDS011;52595;51.608;7.216;2023-04-25T13:50:59;4.97;;;1.65;;
65835;SDS011;52595;51.608;7.216;2023-04-25T13:53:24;5.40;;;1.80;;
65835;SDS011;52595;51.608;7.216;2023-04-25T13:55:50;6.95;;;1.70;;
65835;SDS011;52595;51.608;7.216;2023-04-25T13:58:15;5.10;;;1.70;;
65835;SDS011;52595;51.608;7.216;2023-04-25T14:00:40;5.03;;;2.22;;
65835;SDS011;52595;51.608;7.216;2023-04-25T14:03:08;3.15;;;1.67;;
65835;SDS011;52595;51.608;7.216;2023-04-25T14:05:34;4.75;;;1.90;;
65835;SDS011;52595;51.608;7.216;2023-04-25T14:08:03;3.80;;;1.70;;
65835;SDS011;52595;51.608;7.216;2023-04-25T14:10:29;5.78;;;1.70;;
65835;SDS011;52595;51.608;7.216;2023-04-25T14:12:55;6.38;;;1.63;;
65835;SDS011;52595;51.608;7.216;2023-04-25T14:15:20;4.28;;;1.65;;
65835;SDS011;52595;51.608;7.216;2023-04-25T14:17:46;3.80;;;1.35;;
65835;SDS011;52595;51.608;7.216;2023-04-25T14:20:13;3.20;;;1.63;;
65835;SDS011;52595;51.608;7.216;2023-04-25T14:22:38;2.85;;;1.20;;
65835;SDS011;52595;51.608;7.216;2023-04-25T14:25:08;3.53;;;1.25;;
65835;SDS011;52595;51.608;7.216;2023-04-25T14:27:34;2.97;;;1.25;;
65835;SDS011;52595;51.608;7.216;2023-04-25T14:29:59;5.38;;;1.20;;
65835;SDS011;52595;51.608;7.216;2023-04-25T14:32:24;4.57;;;1.40;;
65835;SDS011;52595;51.608;7.216;2023-04-25T14:34:50;2.95;;;1.40;;
65835;SDS011;52595;51.608;7.216;2023-04-25T14:37:15;2.50;;;1.50;;
65835;SDS011;52595;51.608;7.216;2023-04-25T14:39:41;3.35;;;1.30;;
65835;SDS011;52595;51.608;7.216;2023-04-25T14:42:06;2.90;;;1.35;;
65835;SDS011;52595;51.608;7.216;2023-04-25T14:44:32;6.00;;;1.70;;
65835;SDS011;52595;51.608;7.216;2023-04-25T14:46:57;3.38;;;1.42;;
65835;SDS011;52595;51.608;7.216;2023-04-25T14:49:23;3.70;;;1.35;;